createdAt,value
2018-12-20T00:00:50.083Z,35.47
2018-12-20T00:03:19.698Z,34.83
2018-12-20T00:05:49.946Z,35.77
2018-12-20T00:08:19.530Z,32.90
2018-12-20T00:10:49.003Z,33.37
2018-12-20T00:13:18.576Z,33.43
2018-12-20T00:15:48.045Z,33.83
2018-12-20T00:18:17.383Z,33.40
2018-12-20T00:20:46.734Z,33.47
2018-12-20T00:23:16.200Z,33.17
2018-12-20T00:25:45.635Z,33.63
2018-12-20T00:28:15.035Z,33.87
2018-12-20T00:30:44.447Z,33.13
2018-12-20T00:33:13.986Z,33.27
2018-12-20T00:35:43.345Z,34.43
2018-12-20T00:38:12.909Z,32.60
2018-12-20T00:40:42.287Z,33.90
2018-12-20T00:43:11.930Z,33.23
2018-12-20T00:45:41.418Z,34.83
2018-12-20T00:48:10.821Z,35.30
2018-12-20T00:50:40.246Z,33.47
2018-12-20T00:53:09.733Z,36.50
2018-12-20T00:55:39.125Z,35.90
2018-12-20T00:58:08.577Z,35.10
2018-12-20T01:03:38.353Z,33.50
2018-12-20T01:06:07.910Z,33.90
2018-12-20T01:08:37.374Z,32.33
2018-12-20T01:11:07.377Z,33.37
2018-12-20T01:13:37.159Z,36.00
2018-12-20T01:16:06.676Z,34.80
2018-12-20T01:18:35.988Z,34.50
2018-12-20T01:21:05.574Z,33.77
2018-12-20T01:23:35.002Z,35.47
2018-12-20T01:26:04.950Z,35.33
2018-12-20T01:28:34.479Z,36.73
2018-12-20T01:31:04.034Z,36.77
2018-12-20T01:33:33.439Z,36.80
2018-12-20T01:36:02.834Z,36.67
2018-12-20T01:38:32.230Z,35.10
2018-12-20T01:41:01.563Z,35.93
2018-12-20T01:43:30.971Z,35.47
2018-12-20T01:46:00.534Z,35.60
2018-12-20T01:48:29.906Z,37.10
2018-12-20T01:50:59.445Z,37.23
2018-12-20T01:53:29.005Z,37.00
2018-12-20T01:55:58.445Z,36.00
2018-12-20T01:58:27.932Z,36.93
2018-12-20T02:00:57.351Z,37.70
2018-12-20T02:03:26.645Z,37.90
2018-12-20T02:05:55.940Z,36.40
2018-12-20T02:08:25.303Z,37.57
2018-12-20T02:10:54.676Z,32.60
2018-12-20T02:13:24.004Z,35.77
2018-12-20T02:15:53.534Z,33.57
2018-12-20T02:18:23.264Z,33.63
2018-12-20T02:20:52.834Z,36.60
2018-12-20T02:23:22.208Z,35.47
2018-12-20T02:25:51.510Z,36.73
2018-12-20T02:28:21.054Z,36.40
2018-12-20T02:30:50.442Z,35.77
2018-12-20T02:33:20.032Z,36.33
2018-12-20T02:35:49.488Z,35.03
2018-12-20T02:38:19.121Z,35.57
2018-12-20T02:40:48.478Z,36.90
2018-12-20T02:43:17.818Z,37.13
2018-12-20T02:45:47.270Z,36.70
2018-12-20T02:48:16.990Z,37.87
2018-12-20T02:50:46.302Z,36.70
2018-12-20T02:53:16.331Z,37.03
2018-12-20T02:55:45.697Z,36.97
2018-12-20T02:58:14.954Z,37.70
2018-12-20T03:00:44.282Z,37.03
2018-12-20T03:03:14.785Z,34.20
2018-12-20T03:05:44.385Z,37.53
2018-12-20T03:08:13.866Z,36.57
2018-12-20T03:10:43.240Z,36.07
2018-12-20T03:13:12.697Z,34.57
2018-12-20T03:15:42.123Z,36.47
2018-12-20T03:18:11.537Z,34.23
2018-12-20T03:20:41.137Z,32.50
2018-12-20T03:23:10.446Z,37.27
2018-12-20T03:25:39.962Z,33.90
2018-12-20T03:28:09.249Z,34.43
2018-12-20T03:30:38.851Z,35.40
2018-12-20T03:33:10.453Z,35.57
2018-12-20T03:35:39.748Z,32.73
2018-12-20T03:38:09.168Z,35.27
2018-12-20T03:40:38.770Z,32.13
2018-12-20T03:43:08.228Z,33.07
2018-12-20T03:45:38.594Z,32.67
2018-12-20T03:48:08.684Z,33.63
2018-12-20T03:50:38.097Z,35.87
2018-12-20T03:53:07.421Z,34.37
2018-12-20T03:55:36.868Z,34.33
2018-12-20T03:58:06.305Z,33.83
2018-12-20T04:00:35.646Z,33.93
2018-12-20T04:03:12.018Z,35.60
2018-12-20T04:08:25.528Z,35.53
2018-12-20T04:10:54.949Z,33.47
2018-12-20T04:13:24.558Z,33.47
2018-12-20T04:15:54.068Z,35.23
2018-12-20T04:18:23.359Z,34.47
2018-12-20T04:20:52.798Z,35.27
2018-12-20T04:23:22.124Z,31.97
2018-12-20T04:25:51.817Z,32.60
2018-12-20T04:28:21.161Z,33.93
2018-12-20T04:30:50.627Z,30.07
2018-12-20T04:33:20.033Z,33.03
2018-12-20T04:35:49.590Z,31.30
2018-12-20T04:38:19.263Z,33.80
2018-12-20T04:40:48.891Z,32.30
2018-12-20T04:43:18.180Z,30.93
2018-12-20T04:45:47.659Z,31.73
2018-12-20T04:48:16.984Z,33.10
2018-12-20T04:50:46.894Z,29.37
2018-12-20T04:53:16.317Z,31.73
2018-12-20T04:55:45.871Z,31.80
2018-12-20T04:58:15.422Z,30.97
2018-12-20T05:00:45.070Z,30.03
2018-12-20T05:03:14.417Z,33.60
2018-12-20T05:05:43.917Z,33.63
2018-12-20T05:08:13.369Z,34.07
2018-12-20T05:10:42.925Z,34.37
2018-12-20T05:13:12.251Z,34.27
2018-12-20T05:15:41.512Z,32.53
2018-12-20T05:18:11.047Z,35.03
2018-12-20T05:20:40.328Z,35.67
2018-12-20T05:23:09.910Z,29.33
2018-12-20T05:25:39.509Z,33.77
2018-12-20T05:28:08.841Z,34.97
2018-12-20T05:30:38.394Z,34.53
2018-12-20T05:33:07.865Z,30.50
2018-12-20T05:35:37.201Z,33.80
2018-12-20T05:38:06.471Z,31.13
2018-12-20T05:40:35.730Z,31.13
2018-12-20T05:43:05.206Z,34.90
2018-12-20T05:45:34.661Z,36.03
2018-12-20T05:48:04.365Z,41.83
2018-12-20T05:50:33.725Z,37.50
2018-12-20T05:53:03.203Z,34.20
2018-12-20T05:55:32.533Z,35.27
2018-12-20T05:58:01.855Z,36.23
2018-12-20T06:00:31.341Z,32.07
2018-12-20T06:03:00.643Z,35.60
2018-12-20T06:05:30.081Z,36.10
2018-12-20T06:07:59.576Z,34.17
2018-12-20T06:10:29.060Z,36.00
2018-12-20T06:12:58.414Z,34.67
2018-12-20T06:15:27.918Z,36.00
2018-12-20T06:17:57.222Z,34.73
2018-12-20T06:20:26.638Z,33.80
2018-12-20T06:22:56.477Z,33.90
2018-12-20T06:25:25.769Z,32.63
2018-12-20T06:27:55.011Z,33.20
2018-12-20T06:30:24.357Z,33.30
2018-12-20T06:32:53.686Z,33.37
2018-12-20T06:35:22.917Z,32.70
2018-12-20T06:37:53.043Z,32.50
2018-12-20T06:40:22.295Z,33.43
2018-12-20T06:42:51.546Z,33.47
2018-12-20T06:45:21.873Z,32.47
2018-12-20T06:47:51.189Z,31.67
2018-12-20T06:50:20.438Z,31.43
2018-12-20T06:52:49.727Z,31.03
2018-12-20T06:55:19.026Z,31.07
2018-12-20T06:57:48.654Z,30.30
2018-12-20T07:00:18.901Z,29.63
2018-12-20T07:02:48.126Z,30.47
2018-12-20T07:05:17.586Z,34.67
2018-12-20T07:07:47.088Z,31.27
2018-12-20T07:10:16.321Z,29.97
2018-12-20T07:12:45.584Z,35.10
2018-12-20T07:15:14.837Z,31.70
2018-12-20T07:17:44.177Z,29.50
2018-12-20T07:23:15.830Z,28.87
2018-12-20T07:25:45.294Z,30.07
2018-12-20T07:28:15.501Z,32.73
2018-12-20T07:30:44.757Z,29.83
2018-12-20T07:33:14.017Z,28.80
2018-12-20T07:35:43.741Z,30.17
2018-12-20T07:38:13.174Z,29.83
2018-12-20T07:40:42.826Z,30.47
2018-12-20T07:43:12.053Z,31.93
2018-12-20T07:45:42.168Z,31.87
2018-12-20T07:48:11.402Z,31.50
2018-12-20T07:50:40.743Z,32.67
2018-12-20T07:53:10.006Z,32.00
2018-12-20T07:55:39.266Z,31.17
2018-12-20T07:58:08.534Z,34.27
2018-12-20T08:00:37.867Z,33.20
2018-12-20T08:03:07.157Z,32.07
2018-12-20T08:05:36.425Z,31.97
2018-12-20T08:08:05.831Z,31.33
2018-12-20T08:10:35.106Z,29.07
2018-12-20T08:13:04.447Z,30.57
2018-12-20T08:15:33.794Z,30.97
2018-12-20T08:18:03.191Z,31.07
2018-12-20T08:20:32.555Z,31.80
2018-12-20T08:23:01.983Z,31.93
2018-12-20T08:25:31.525Z,31.03
2018-12-20T08:28:01.701Z,31.40
2018-12-20T08:30:30.990Z,31.57
2018-12-20T08:33:00.303Z,30.83
2018-12-20T08:35:29.687Z,30.33
2018-12-20T08:37:59.055Z,31.40
2018-12-20T08:40:28.438Z,31.00
2018-12-20T08:42:57.718Z,30.43
2018-12-20T08:45:27.126Z,28.40
2018-12-20T08:47:56.509Z,29.50
2018-12-20T08:50:25.979Z,29.07
2018-12-20T08:52:55.261Z,30.70
2018-12-20T08:55:24.503Z,30.33
2018-12-20T08:57:53.843Z,29.90
2018-12-20T09:00:23.143Z,30.60
2018-12-20T09:02:52.462Z,31.13
2018-12-20T09:05:21.935Z,30.33
2018-12-20T09:07:51.416Z,31.20
2018-12-20T09:10:20.940Z,30.03
2018-12-20T09:12:50.969Z,31.53
2018-12-20T09:15:20.206Z,29.27
2018-12-20T09:17:49.515Z,28.83
2018-12-20T09:20:18.942Z,28.83
2018-12-20T09:22:48.197Z,29.47
2018-12-20T09:25:17.548Z,28.97
2018-12-20T09:27:46.789Z,30.80
2018-12-20T09:30:16.120Z,26.70
2018-12-20T09:32:45.346Z,25.83
2018-12-20T09:35:14.737Z,24.27
2018-12-20T09:37:44.155Z,24.57
2018-12-20T09:40:13.559Z,26.07
2018-12-20T09:42:42.858Z,25.40
2018-12-20T09:45:12.223Z,26.97
2018-12-20T09:47:46.810Z,26.63
2018-12-20T09:50:16.069Z,26.43
2018-12-20T09:52:45.400Z,25.20
2018-12-20T09:55:14.848Z,25.57
2018-12-20T09:57:44.170Z,25.33
2018-12-20T10:00:13.438Z,26.80
2018-12-20T10:02:42.738Z,24.17
2018-12-20T10:05:12.105Z,21.00
2018-12-20T10:07:41.365Z,22.90
2018-12-20T10:10:10.809Z,20.20
2018-12-20T10:12:40.231Z,20.70
2018-12-20T10:15:09.679Z,21.70
2018-12-20T10:17:39.019Z,19.93
2018-12-20T10:20:12.214Z,19.83
2018-12-20T10:22:42.544Z,20.67
2018-12-20T10:25:12.150Z,20.50
2018-12-20T10:27:41.405Z,21.33
2018-12-20T10:30:11.399Z,20.40
2018-12-20T10:32:40.771Z,20.37
2018-12-20T10:35:10.066Z,20.43
2018-12-20T10:37:39.319Z,17.40
2018-12-20T10:40:08.921Z,16.83
2018-12-20T10:42:38.155Z,19.30
2018-12-20T10:45:08.485Z,18.27
2018-12-20T10:47:37.855Z,17.70
2018-12-20T10:50:08.862Z,17.03
2018-12-20T10:52:38.171Z,16.20
2018-12-20T10:55:07.627Z,16.00
2018-12-20T10:57:37.193Z,15.30
2018-12-20T11:00:07.667Z,13.33
2018-12-20T11:03:42.670Z,12.80
2018-12-20T11:09:37.208Z,14.43
2018-12-20T11:12:08.897Z,14.03
2018-12-20T11:14:38.800Z,13.70
2018-12-20T11:17:08.218Z,13.93
2018-12-20T11:19:37.461Z,14.13
2018-12-20T11:22:06.843Z,13.37
2018-12-20T11:24:36.170Z,13.00
2018-12-20T11:27:05.657Z,12.63
2018-12-20T11:29:34.892Z,12.70
2018-12-20T11:32:04.330Z,12.53
2018-12-20T11:34:33.702Z,11.90
2018-12-20T11:37:02.990Z,11.63
2018-12-20T11:39:32.291Z,11.80
2018-12-20T11:42:01.558Z,12.13
2018-12-20T11:44:30.842Z,10.17
2018-12-20T11:47:00.165Z,10.67
2018-12-20T11:49:29.498Z,10.10
2018-12-20T11:51:58.903Z,11.10
2018-12-20T11:54:28.161Z,10.47
2018-12-20T11:56:57.510Z,9.87
2018-12-20T11:59:26.829Z,10.53
2018-12-20T12:01:56.203Z,10.70
2018-12-20T12:04:25.454Z,10.70
2018-12-20T12:06:54.973Z,10.17
2018-12-20T12:09:25.527Z,8.90
2018-12-20T12:11:55.034Z,9.23
2018-12-20T12:14:24.308Z,9.50
2018-12-20T12:16:53.639Z,8.87
2018-12-20T12:19:22.937Z,8.87
2018-12-20T12:21:52.193Z,7.73
2018-12-20T12:24:21.453Z,7.90
2018-12-20T12:26:50.846Z,8.20
2018-12-20T12:29:20.203Z,7.70
2018-12-20T12:31:49.531Z,7.53
2018-12-20T12:34:18.841Z,7.97
2018-12-20T12:36:48.277Z,7.43
2018-12-20T12:39:17.763Z,7.80
2018-12-20T12:41:47.074Z,7.17
2018-12-20T12:44:16.356Z,7.30
2018-12-20T12:46:45.603Z,6.97
2018-12-20T12:49:14.897Z,7.00
2018-12-20T12:51:52.863Z,6.43
2018-12-20T12:54:15.893Z,7.50
2018-12-20T12:56:45.292Z,8.30
2018-12-20T12:59:14.551Z,6.77
2018-12-20T13:01:43.866Z,7.17
2018-12-20T13:04:13.263Z,8.10
2018-12-20T13:06:43.211Z,6.83
2018-12-20T13:09:12.677Z,5.67
2018-12-20T13:11:42.192Z,7.03
2018-12-20T13:14:11.626Z,6.00
2018-12-20T13:16:41.099Z,6.07
2018-12-20T13:19:10.514Z,5.53
2018-12-20T13:21:39.950Z,5.73
2018-12-20T13:24:09.578Z,5.77
2018-12-20T13:26:39.209Z,5.70
2018-12-20T13:29:08.621Z,5.40
2018-12-20T13:31:38.134Z,5.43
2018-12-20T13:34:07.428Z,5.53
2018-12-20T13:36:36.875Z,5.03
2018-12-20T13:39:08.485Z,5.53
2018-12-20T13:41:37.761Z,4.87
2018-12-20T13:44:07.038Z,4.83
2018-12-20T13:46:39.494Z,5.40
2018-12-20T13:49:08.978Z,4.60
2018-12-20T13:51:38.503Z,4.70
2018-12-20T13:54:07.899Z,5.37
2018-12-20T13:56:37.185Z,5.40
2018-12-20T13:59:06.479Z,6.33
2018-12-20T14:01:36.101Z,6.40
2018-12-20T14:04:06.424Z,6.67
2018-12-20T14:06:36.847Z,5.80
2018-12-20T14:09:09.792Z,6.83
2018-12-20T14:11:39.273Z,8.20
2018-12-20T14:14:08.538Z,6.53
2018-12-20T14:16:37.872Z,6.00
2018-12-20T14:19:07.321Z,6.43
2018-12-20T14:21:36.603Z,6.00
2018-12-20T14:24:05.874Z,5.30
2018-12-20T14:26:35.240Z,5.87
2018-12-20T14:29:04.706Z,5.47
2018-12-20T14:31:33.966Z,5.87
2018-12-20T14:34:03.323Z,5.77
2018-12-20T14:36:32.699Z,5.73
2018-12-20T14:39:02.285Z,6.40
2018-12-20T14:41:31.840Z,5.70
2018-12-20T14:44:01.266Z,5.27
2018-12-20T14:46:30.660Z,5.80
2018-12-20T14:48:59.970Z,6.10
2018-12-20T14:51:29.381Z,5.73
2018-12-20T14:53:58.679Z,5.87
2018-12-20T14:56:28.987Z,5.43
2018-12-20T14:58:58.306Z,5.67
2018-12-20T15:01:27.694Z,5.70
2018-12-20T15:06:51.338Z,5.30
2018-12-20T15:09:20.713Z,5.20
2018-12-20T15:11:49.987Z,6.03
2018-12-20T15:14:19.322Z,7.37
2018-12-20T15:16:48.653Z,7.20
2018-12-20T15:19:17.966Z,6.17
2018-12-20T15:21:47.411Z,6.30
2018-12-20T15:24:16.741Z,7.10
2018-12-20T15:26:46.082Z,10.17
2018-12-20T15:29:15.362Z,12.37
2018-12-20T15:31:53.168Z,20.80
2018-12-20T15:34:16.847Z,12.53
2018-12-20T15:36:46.187Z,10.33
2018-12-20T15:39:15.579Z,8.87
2018-12-20T15:41:44.966Z,9.43
2018-12-20T15:44:14.354Z,8.93
2018-12-20T15:46:43.758Z,9.50
2018-12-20T15:49:13.396Z,8.20
2018-12-20T15:51:43.236Z,8.17
2018-12-20T15:54:12.541Z,8.27
2018-12-20T15:56:41.819Z,8.97
2018-12-20T15:59:11.391Z,10.77
2018-12-20T16:01:40.826Z,9.53
2018-12-20T16:04:10.228Z,8.27
2018-12-20T16:06:39.526Z,7.67
2018-12-20T16:09:09.115Z,9.27
2018-12-20T16:11:38.412Z,9.77
2018-12-20T16:14:07.729Z,8.97
2018-12-20T16:16:37.165Z,8.00
2018-12-20T16:19:06.477Z,7.20
2018-12-20T16:21:35.855Z,7.37
2018-12-20T16:24:05.366Z,14.00
2018-12-20T16:26:34.745Z,7.70
2018-12-20T16:29:04.177Z,6.40
2018-12-20T16:31:33.451Z,7.23
2018-12-20T16:34:03.307Z,5.67
2018-12-20T16:36:32.823Z,5.30
2018-12-20T16:39:02.165Z,5.83
2018-12-20T16:41:32.228Z,5.87
2018-12-20T16:44:02.622Z,5.27
2018-12-20T16:46:32.697Z,4.83
2018-12-20T16:49:02.009Z,4.70
2018-12-20T16:51:31.388Z,4.83
2018-12-20T16:54:00.672Z,4.17
2018-12-20T16:56:31.185Z,5.07
2018-12-20T16:59:00.447Z,5.03
2018-12-20T17:01:29.746Z,4.73
2018-12-20T17:03:59.013Z,4.93
2018-12-20T17:06:28.360Z,5.87
2018-12-20T17:08:57.625Z,5.40
2018-12-20T17:11:26.954Z,5.60
2018-12-20T17:13:56.307Z,5.90
2018-12-20T17:16:25.585Z,5.40
2018-12-20T17:18:54.944Z,5.33
2018-12-20T17:21:24.286Z,5.77
2018-12-20T17:23:53.551Z,5.40
2018-12-20T17:26:22.785Z,4.67
2018-12-20T17:28:53.357Z,4.53
2018-12-20T17:31:22.666Z,5.23
2018-12-20T17:33:51.919Z,4.60
2018-12-20T17:36:21.275Z,6.00
2018-12-20T17:38:50.645Z,5.57
2018-12-20T17:41:19.936Z,6.50
2018-12-20T17:43:49.214Z,5.07
2018-12-20T17:46:18.502Z,5.67
2018-12-20T17:48:47.798Z,6.60
2018-12-20T17:51:17.681Z,6.07
2018-12-20T17:53:47.157Z,6.13
2018-12-20T17:56:16.415Z,5.93
2018-12-20T17:58:45.706Z,5.90
2018-12-20T18:01:15.978Z,5.93
2018-12-20T18:03:45.311Z,6.20
2018-12-20T18:06:14.678Z,5.80
2018-12-20T18:08:43.938Z,5.70
2018-12-20T18:11:13.436Z,5.63
2018-12-20T18:13:42.702Z,6.10
2018-12-20T18:16:11.976Z,6.07
2018-12-20T18:18:41.581Z,5.50
2018-12-20T18:21:11.034Z,12.93
2018-12-20T18:23:40.477Z,7.43
2018-12-20T18:26:09.841Z,9.30
2018-12-20T18:28:39.113Z,8.17
2018-12-20T18:31:08.686Z,12.57
2018-12-20T18:33:38.078Z,10.90
2018-12-20T18:36:07.430Z,10.60
2018-12-20T18:38:36.830Z,12.97
2018-12-20T18:41:06.122Z,14.80
2018-12-20T18:43:35.448Z,13.07
2018-12-20T18:46:04.844Z,11.33
2018-12-20T18:48:34.300Z,12.07
2018-12-20T18:51:05.134Z,13.47
2018-12-20T18:53:35.367Z,13.00
2018-12-20T18:56:04.791Z,12.60
2018-12-20T18:58:34.142Z,10.90
2018-12-20T19:01:03.562Z,9.60
2018-12-20T19:03:33.021Z,9.47
2018-12-20T19:06:02.292Z,8.87
2018-12-20T19:08:31.574Z,8.33
2018-12-20T19:11:00.855Z,8.43
2018-12-20T19:13:30.368Z,6.37
2018-12-20T19:15:59.711Z,5.90
2018-12-20T19:18:28.997Z,4.43
2018-12-20T19:20:59.170Z,3.97
2018-12-20T19:23:28.407Z,3.73
2018-12-20T19:25:57.765Z,3.43
2018-12-20T19:28:27.008Z,4.23
2018-12-20T19:30:56.247Z,4.10
2018-12-20T19:33:25.682Z,3.00
2018-12-20T19:35:54.930Z,3.63
2018-12-20T19:38:24.182Z,3.30
2018-12-20T19:40:53.426Z,3.93
2018-12-20T19:43:22.677Z,3.20
2018-12-20T19:45:52.062Z,3.07
2018-12-20T19:48:21.386Z,2.80
2018-12-20T19:50:50.629Z,3.20
2018-12-20T19:53:19.895Z,3.30
2018-12-20T19:55:49.153Z,3.40
2018-12-20T19:58:18.445Z,3.00
2018-12-20T20:00:47.674Z,3.97
2018-12-20T20:03:16.930Z,3.23
2018-12-20T20:05:46.228Z,3.70
2018-12-20T20:08:22.153Z,4.17
2018-12-20T20:10:51.398Z,3.33
2018-12-20T20:13:20.750Z,3.93
2018-12-20T20:15:50.075Z,3.73
2018-12-20T20:18:19.328Z,4.23
2018-12-20T20:20:48.600Z,3.47
2018-12-20T20:23:17.912Z,3.93
2018-12-20T20:29:38.859Z,3.80
2018-12-20T20:32:08.178Z,3.80
2018-12-20T20:34:37.458Z,5.47
2018-12-20T20:37:06.738Z,3.80
2018-12-20T20:39:36.104Z,3.77
2018-12-20T20:42:05.567Z,4.07
2018-12-20T20:44:34.981Z,3.83
2018-12-20T20:47:04.600Z,5.43
2018-12-20T20:49:34.092Z,6.30
2018-12-20T20:52:03.365Z,6.67
2018-12-20T20:54:32.623Z,8.00
2018-12-20T20:57:01.906Z,10.77
2018-12-20T20:59:32.119Z,7.90
2018-12-20T21:02:01.509Z,8.63
2018-12-20T21:04:37.658Z,7.57
2018-12-20T21:07:06.939Z,8.10
2018-12-20T21:09:36.343Z,8.87
2018-12-20T21:12:06.329Z,7.70
2018-12-20T21:14:35.814Z,7.27
2018-12-20T21:17:05.210Z,7.77
2018-12-20T21:19:34.561Z,7.90
2018-12-20T21:22:03.942Z,7.23
2018-12-20T21:24:33.315Z,6.37
2018-12-20T21:27:02.574Z,5.30
2018-12-20T21:29:31.855Z,5.37
2018-12-20T21:32:01.229Z,5.43
2018-12-20T21:34:30.497Z,6.37
2018-12-20T21:36:59.841Z,6.37
2018-12-20T21:39:29.127Z,6.47
2018-12-20T21:41:58.542Z,5.70
2018-12-20T21:44:27.799Z,5.37
2018-12-20T21:46:57.113Z,5.63
2018-12-20T21:49:26.514Z,5.80
2018-12-20T21:51:55.838Z,5.70
2018-12-20T21:54:25.102Z,5.80
2018-12-20T21:56:54.482Z,5.50
2018-12-20T21:59:24.408Z,5.20
2018-12-20T22:01:54.300Z,5.63
2018-12-20T22:04:23.674Z,6.47
2018-12-20T22:06:52.929Z,7.13
2018-12-20T22:09:22.433Z,6.60
2018-12-20T22:11:51.767Z,7.10
2018-12-20T22:14:21.071Z,7.87
2018-12-20T22:16:50.380Z,6.90
2018-12-20T22:19:19.731Z,7.30
2018-12-20T22:21:49.012Z,7.03
2018-12-20T22:24:18.411Z,6.67
2018-12-20T22:26:47.885Z,7.30
2018-12-20T22:29:17.151Z,7.90
2018-12-20T22:31:46.470Z,7.80
2018-12-20T22:34:16.110Z,7.07
2018-12-20T22:36:45.365Z,6.93
2018-12-20T22:39:14.727Z,7.90
2018-12-20T22:41:44.018Z,8.00
2018-12-20T22:44:13.303Z,7.30
2018-12-20T22:46:42.676Z,7.43
2018-12-20T22:49:11.950Z,7.37
2018-12-20T22:51:41.481Z,7.43
2018-12-20T22:54:10.774Z,7.33
2018-12-20T22:56:40.050Z,6.07
2018-12-20T22:59:09.303Z,6.70
2018-12-20T23:01:38.530Z,6.00
2018-12-20T23:04:07.886Z,6.47
2018-12-20T23:06:37.402Z,6.40
2018-12-20T23:09:07.282Z,5.70
2018-12-20T23:11:36.548Z,6.10
2018-12-20T23:14:06.002Z,5.97
2018-12-20T23:16:35.267Z,5.90
2018-12-20T23:19:04.625Z,6.17
2018-12-20T23:21:34.201Z,5.53
2018-12-20T23:24:03.561Z,6.40
2018-12-20T23:26:32.937Z,5.83
2018-12-20T23:29:02.229Z,5.60
2018-12-20T23:31:31.516Z,5.10
2018-12-20T23:34:00.988Z,5.40
2018-12-20T23:36:30.360Z,6.77
2018-12-20T23:38:59.737Z,5.70
2018-12-20T23:41:28.998Z,5.13
2018-12-20T23:43:58.342Z,5.47
2018-12-20T23:46:27.638Z,5.77
2018-12-20T23:48:56.921Z,6.07
2018-12-20T23:51:26.178Z,5.53
2018-12-20T23:53:56.174Z,5.50
2018-12-20T23:56:25.554Z,5.30
2018-12-20T23:58:54.879Z,5.30
